BAW926 LTFJ-LGAV
Flight info
| Callsign | BAW926 |
|---|---|
| Flight time | 1h 11m |
| Altitude | 32000 |
| Route | IVGUS UY226 BIG UN604 OGSIL |
| Aircraft | A320/M-SDE3FGHIRWY/LB1 |
Departure
| Time | 2026-05-04 13:12 |
|---|---|
| Airport | Istanbul Sabiha Gökçen International Airport (LTFJ) |
Arrival
| Time | 2026-05-04 14:23 |
|---|---|
| Airport | Athens Eleftherios Venizelos International Airport (LGAV) |
| Time | Latitude | Longitude | Altitude | Speed | Heading |
|---|---|---|---|---|---|
| 2026-05-04 12:42 | 40.90549 | 29.31390 | 310 ft | 0 kts | 336° |
| 2026-05-04 13:01 | 40.90535 | 29.31398 | 284 ft | 2 kts | 335° |
| 2026-05-04 13:02 | 40.90521 | 29.31411 | 314 ft | 3 kts | 299° |
| 2026-05-04 13:02 | 40.90515 | 29.31434 | 310 ft | 3 kts | 263° |
| 2026-05-04 13:02 | 40.90518 | 29.31451 | 309 ft | 0 kts | 235° |
| 2026-05-04 13:02 | 40.90518 | 29.31450 | 309 ft | 0 kts | 235° |
| 2026-05-04 13:04 | 40.90514 | 29.31443 | 309 ft | 2 kts | 235° |
| 2026-05-04 13:04 | 40.90500 | 29.31417 | 309 ft | 5 kts | 234° |
| 2026-05-04 13:05 | 40.90467 | 29.31391 | 310 ft | 7 kts | 211° |
| 2026-05-04 13:05 | 40.90420 | 29.31353 | 310 ft | 9 kts | 211° |
| 2026-05-04 13:05 | 40.90361 | 29.31304 | 309 ft | 11 kts | 215° |
| 2026-05-04 13:05 | 40.90322 | 29.31213 | 309 ft | 12 kts | 243° |
| 2026-05-04 13:06 | 40.90283 | 29.31111 | 309 ft | 12 kts | 243° |
| 2026-05-04 13:06 | 40.90251 | 29.31022 | 310 ft | 8 kts | 245° |
| 2026-05-04 13:06 | 40.90223 | 29.30967 | 309 ft | 6 kts | 201° |
| 2026-05-04 13:06 | 40.90192 | 29.30966 | 309 ft | 3 kts | 153° |
| 2026-05-04 13:07 | 40.90150 | 29.30992 | 308 ft | 10 kts | 165° |
| 2026-05-04 13:07 | 40.90093 | 29.30979 | 308 ft | 8 kts | 222° |
| 2026-05-04 13:07 | 40.90045 | 29.30864 | 308 ft | 17 kts | 244° |
| 2026-05-04 13:07 | 40.89995 | 29.30731 | 309 ft | 16 kts | 243° |
| 2026-05-04 13:08 | 40.89944 | 29.30593 | 308 ft | 16 kts | 244° |
| 2026-05-04 13:08 | 40.89898 | 29.30469 | 307 ft | 14 kts | 243° |
| 2026-05-04 13:08 | 40.89856 | 29.30359 | 308 ft | 12 kts | 243° |
| 2026-05-04 13:08 | 40.89820 | 29.30264 | 306 ft | 11 kts | 244° |
| 2026-05-04 13:09 | 40.89773 | 29.30139 | 308 ft | 20 kts | 243° |
| 2026-05-04 13:09 | 40.89703 | 29.29952 | 306 ft | 23 kts | 245° |
| 2026-05-04 13:09 | 40.89638 | 29.29766 | 305 ft | 22 kts | 244° |
| 2026-05-04 13:09 | 40.89575 | 29.29593 | 304 ft | 20 kts | 245° |
| 2026-05-04 13:10 | 40.89516 | 29.29432 | 304 ft | 19 kts | 244° |
| 2026-05-04 13:10 | 40.89453 | 29.29285 | 303 ft | 18 kts | 224° |
| 2026-05-04 13:10 | 40.89344 | 29.29288 | 303 ft | 16 kts | 156° |
| 2026-05-04 13:10 | 40.89292 | 29.29387 | 305 ft | 14 kts | 76° |
| 2026-05-04 13:11 | 40.89366 | 29.29593 | 305 ft | 52 kts | 63° |
| 2026-05-04 13:11 | 40.89621 | 29.30280 | 308 ft | 111 kts | 64° |
| 2026-05-04 13:11 | 40.90024 | 29.31362 | 316 ft | 153 kts | 62° |
| 2026-05-04 13:11 | 40.90481 | 29.32710 | 784 ft | 163 kts | 63° |
| 2026-05-04 13:12 | 40.90931 | 29.34101 | 1501 ft | 164 kts | 59° |
| 2026-05-04 13:12 | 40.91460 | 29.35511 | 1900 ft | 181 kts | 58° |
| 2026-05-04 13:12 | 40.92061 | 29.37065 | 2171 ft | 205 kts | 58° |
| 2026-05-04 13:12 | 40.92745 | 29.38840 | 2560 ft | 229 kts | 58° |
| 2026-05-04 13:13 | 40.93403 | 29.40846 | 3206 ft | 246 kts | 73° |
| 2026-05-04 13:13 | 40.93235 | 29.43158 | 3949 ft | 269 kts | 110° |
| 2026-05-04 13:13 | 40.92018 | 29.45102 | 4706 ft | 285 kts | 144° |
| 2026-05-04 13:13 | 40.90231 | 29.46288 | 5532 ft | 291 kts | 160° |
| 2026-05-04 13:14 | 40.88291 | 29.47147 | 6372 ft | 297 kts | 163° |
| 2026-05-04 13:14 | 40.86292 | 29.47962 | 6879 ft | 304 kts | 166° |
| 2026-05-04 13:14 | 40.84201 | 29.48122 | 7138 ft | 303 kts | 193° |
| 2026-05-04 13:14 | 40.82237 | 29.47242 | 7975 ft | 298 kts | 213° |
| 2026-05-04 13:15 | 40.80653 | 29.45529 | 8745 ft | 294 kts | 237° |
| 2026-05-04 13:15 | 40.79685 | 29.43191 | 9461 ft | 289 kts | 260° |
| 2026-05-04 13:15 | 40.79436 | 29.40595 | 10173 ft | 285 kts | 277° |
| 2026-05-04 13:15 | 40.79472 | 29.37895 | 10495 ft | 306 kts | 277° |
| 2026-05-04 13:16 | 40.79514 | 29.34992 | 10787 ft | 325 kts | 277° |
| 2026-05-04 13:16 | 40.79546 | 29.31973 | 10998 ft | 331 kts | 277° |
| 2026-05-04 13:16 | 40.79566 | 29.28936 | 11031 ft | 331 kts | 277° |
| 2026-05-04 13:16 | 40.79580 | 29.25893 | 11075 ft | 334 kts | 276° |
| 2026-05-04 13:17 | 40.79416 | 29.22809 | 11713 ft | 342 kts | 267° |
| 2026-05-04 13:17 | 40.79027 | 29.19691 | 12381 ft | 346 kts | 266° |
| 2026-05-04 13:17 | 40.78623 | 29.16540 | 13045 ft | 351 kts | 266° |
| 2026-05-04 13:17 | 40.78210 | 29.13346 | 13689 ft | 355 kts | 266° |
| 2026-05-04 13:18 | 40.77786 | 29.10103 | 14230 ft | 361 kts | 266° |
| 2026-05-04 13:18 | 40.77361 | 29.06865 | 14775 ft | 365 kts | 266° |
| 2026-05-04 13:18 | 40.76922 | 29.03512 | 15332 ft | 368 kts | 266° |
| 2026-05-04 13:18 | 40.76485 | 29.00162 | 15843 ft | 372 kts | 265° |
| 2026-05-04 13:19 | 40.76042 | 28.96784 | 16411 ft | 376 kts | 265° |
| 2026-05-04 13:19 | 40.75594 | 28.93372 | 16977 ft | 380 kts | 265° |
| 2026-05-04 13:19 | 40.75145 | 28.89973 | 17532 ft | 383 kts | 265° |
| 2026-05-04 13:19 | 40.74684 | 28.86494 | 18096 ft | 387 kts | 265° |
| 2026-05-04 13:20 | 40.74218 | 28.82988 | 18622 ft | 390 kts | 265° |
| 2026-05-04 13:20 | 40.73746 | 28.79451 | 19103 ft | 393 kts | 265° |
| 2026-05-04 13:20 | 40.73274 | 28.75890 | 19597 ft | 397 kts | 265° |
| 2026-05-04 13:20 | 40.72793 | 28.72291 | 20089 ft | 400 kts | 265° |
| 2026-05-04 13:21 | 40.72303 | 28.68653 | 20590 ft | 403 kts | 265° |
| 2026-05-04 13:21 | 40.71813 | 28.65005 | 21051 ft | 407 kts | 265° |
| 2026-05-04 13:21 | 40.71316 | 28.61311 | 21497 ft | 411 kts | 265° |
| 2026-05-04 13:21 | 40.70816 | 28.57593 | 21935 ft | 414 kts | 265° |
| 2026-05-04 13:22 | 40.70309 | 28.53836 | 22392 ft | 418 kts | 265° |
| 2026-05-04 13:22 | 40.69798 | 28.50054 | 22826 ft | 421 kts | 265° |
| 2026-05-04 13:22 | 40.69280 | 28.46236 | 23267 ft | 425 kts | 265° |
| 2026-05-04 13:22 | 40.68757 | 28.42381 | 23663 ft | 429 kts | 265° |
| 2026-05-04 13:23 | 40.68227 | 28.38506 | 24035 ft | 432 kts | 264° |
| 2026-05-04 13:23 | 40.67691 | 28.34605 | 24423 ft | 434 kts | 264° |
| 2026-05-04 13:23 | 40.67155 | 28.30683 | 24808 ft | 436 kts | 264° |
| 2026-05-04 13:23 | 40.66616 | 28.26740 | 25193 ft | 439 kts | 264° |
| 2026-05-04 13:24 | 40.66072 | 28.22769 | 25563 ft | 441 kts | 264° |
| 2026-05-04 13:24 | 40.65522 | 28.18789 | 25946 ft | 443 kts | 264° |
| 2026-05-04 13:24 | 40.64976 | 28.14850 | 26308 ft | 446 kts | 264° |
| 2026-05-04 13:25 | 40.63849 | 28.06769 | 27024 ft | 450 kts | 264° |
| 2026-05-04 13:25 | 40.63276 | 28.02703 | 27381 ft | 453 kts | 263° |
| 2026-05-04 13:25 | 40.62700 | 27.98620 | 27740 ft | 455 kts | 263° |
| 2026-05-04 13:25 | 40.62121 | 27.94521 | 28096 ft | 457 kts | 263° |
| 2026-05-04 13:26 | 40.61539 | 27.90391 | 28444 ft | 460 kts | 263° |
| 2026-05-04 13:26 | 40.60955 | 27.86245 | 28793 ft | 462 kts | 263° |
| 2026-05-04 13:26 | 40.60367 | 27.82076 | 29152 ft | 465 kts | 263° |
| 2026-05-04 13:26 | 40.59777 | 27.77906 | 29505 ft | 467 kts | 263° |
| 2026-05-04 13:27 | 40.59173 | 27.73663 | 29841 ft | 470 kts | 263° |
| 2026-05-04 13:27 | 40.58565 | 27.69426 | 30158 ft | 472 kts | 263° |
| 2026-05-04 13:27 | 40.57748 | 27.65227 | 30449 ft | 478 kts | 252° |
| 2026-05-04 13:27 | 40.56353 | 27.61244 | 30747 ft | 483 kts | 241° |
| 2026-05-04 13:28 | 40.54402 | 27.57635 | 31167 ft | 483 kts | 230° |
| 2026-05-04 13:28 | 40.52005 | 27.54544 | 31611 ft | 482 kts | 218° |
| 2026-05-04 13:28 | 40.49247 | 27.52057 | 32062 ft | 480 kts | 208° |
| 2026-05-04 13:28 | 40.46360 | 27.49891 | 32518 ft | 478 kts | 208° |
| 2026-05-04 13:29 | 40.43478 | 27.47738 | 32977 ft | 476 kts | 208° |
| 2026-05-04 13:29 | 40.40600 | 27.45599 | 33463 ft | 474 kts | 208° |
| 2026-05-04 13:29 | 40.37739 | 27.43472 | 33934 ft | 472 kts | 208° |
| 2026-05-04 13:29 | 40.34893 | 27.41354 | 34346 ft | 470 kts | 208° |
| 2026-05-04 13:30 | 40.32090 | 27.39269 | 34708 ft | 468 kts | 208° |
| 2026-05-04 13:30 | 40.29264 | 27.37169 | 35075 ft | 467 kts | 210° |
| 2026-05-04 13:30 | 40.26557 | 27.34827 | 35427 ft | 465 kts | 215° |
| 2026-05-04 13:30 | 40.23920 | 27.32383 | 35764 ft | 464 kts | 216° |
| 2026-05-04 13:31 | 40.21287 | 27.29946 | 35991 ft | 464 kts | 216° |
| 2026-05-04 13:31 | 40.18653 | 27.27514 | 36052 ft | 464 kts | 216° |
| 2026-05-04 13:31 | 40.13381 | 27.22664 | 36047 ft | 463 kts | 216° |
| 2026-05-04 13:32 | 40.08117 | 27.17820 | 36049 ft | 462 kts | 216° |
| 2026-05-04 13:32 | 40.03746 | 27.13798 | 36048 ft | 462 kts | 216° |
| 2026-05-04 13:33 | 39.98478 | 27.08974 | 36054 ft | 462 kts | 215° |
| 2026-05-04 13:33 | 39.93218 | 27.04165 | 36053 ft | 462 kts | 216° |
| 2026-05-04 13:34 | 39.87950 | 26.99346 | 36064 ft | 463 kts | 216° |
| 2026-05-04 13:34 | 39.82679 | 26.94536 | 36077 ft | 463 kts | 215° |
| 2026-05-04 13:35 | 39.74742 | 26.87339 | 36085 ft | 463 kts | 215° |
| 2026-05-04 13:36 | 39.69459 | 26.82542 | 36088 ft | 463 kts | 216° |
| 2026-05-04 13:36 | 39.64171 | 26.77755 | 36091 ft | 463 kts | 215° |
| 2026-05-04 13:37 | 39.58887 | 26.72988 | 36088 ft | 462 kts | 216° |
| 2026-05-04 13:37 | 39.53612 | 26.68231 | 36089 ft | 461 kts | 216° |
| 2026-05-04 13:38 | 39.48344 | 26.63496 | 36087 ft | 460 kts | 215° |
| 2026-05-04 13:38 | 39.43081 | 26.58778 | 36085 ft | 460 kts | 215° |
| 2026-05-04 13:39 | 39.37872 | 26.54107 | 36085 ft | 458 kts | 216° |
| 2026-05-04 13:39 | 39.32563 | 26.49455 | 36089 ft | 458 kts | 210° |
| 2026-05-04 13:40 | 39.27065 | 26.45418 | 36088 ft | 457 kts | 210° |
| 2026-05-04 13:40 | 39.22005 | 26.40538 | 36083 ft | 455 kts | 228° |
| 2026-05-04 13:41 | 39.17994 | 26.34265 | 36081 ft | 453 kts | 233° |
| 2026-05-04 13:41 | 39.14044 | 26.27935 | 36083 ft | 454 kts | 232° |
| 2026-05-04 13:42 | 39.08090 | 26.18443 | 36089 ft | 454 kts | 233° |
| 2026-05-04 13:42 | 39.04129 | 26.12126 | 36085 ft | 453 kts | 232° |
| 2026-05-04 13:43 | 39.00166 | 26.05824 | 36086 ft | 453 kts | 233° |
| 2026-05-04 13:43 | 38.96206 | 25.99540 | 36091 ft | 453 kts | 233° |
| 2026-05-04 13:44 | 38.92243 | 25.93253 | 36092 ft | 452 kts | 233° |
| 2026-05-04 13:44 | 38.88284 | 25.86984 | 36099 ft | 452 kts | 233° |
| 2026-05-04 13:45 | 38.84323 | 25.80727 | 36101 ft | 451 kts | 233° |
| 2026-05-04 13:45 | 38.80361 | 25.74478 | 36106 ft | 451 kts | 233° |
| 2026-05-04 13:46 | 38.76404 | 25.68252 | 36106 ft | 450 kts | 233° |
| 2026-05-04 13:46 | 38.72462 | 25.62073 | 36111 ft | 450 kts | 233° |
| 2026-05-04 13:47 | 38.68502 | 25.55875 | 36115 ft | 450 kts | 233° |
| 2026-05-04 13:47 | 38.64546 | 25.49681 | 36111 ft | 449 kts | 233° |
| 2026-05-04 13:48 | 38.60583 | 25.43499 | 36112 ft | 449 kts | 233° |
| 2026-05-04 13:48 | 38.56627 | 25.37334 | 36115 ft | 448 kts | 233° |
| 2026-05-04 13:49 | 38.52678 | 25.31182 | 36113 ft | 448 kts | 234° |
| 2026-05-04 13:49 | 38.48716 | 25.25045 | 36114 ft | 448 kts | 234° |
| 2026-05-04 13:50 | 38.44750 | 25.18913 | 36115 ft | 448 kts | 234° |
| 2026-05-04 13:50 | 38.40787 | 25.12784 | 36114 ft | 448 kts | 234° |
| 2026-05-04 13:51 | 38.38803 | 25.09716 | 35644 ft | 448 kts | 234° |
| 2026-05-04 13:51 | 38.36804 | 25.06629 | 34411 ft | 455 kts | 234° |
| 2026-05-04 13:51 | 38.34815 | 25.03563 | 33351 ft | 454 kts | 233° |
| 2026-05-04 13:51 | 38.32806 | 25.00472 | 32356 ft | 451 kts | 232° |
| 2026-05-04 13:52 | 38.28839 | 24.94376 | 30656 ft | 441 kts | 230° |
| 2026-05-04 13:52 | 38.26918 | 24.91426 | 30216 ft | 426 kts | 229° |
| 2026-05-04 13:52 | 38.25056 | 24.88569 | 29731 ft | 412 kts | 229° |
| 2026-05-04 13:53 | 38.23310 | 24.85730 | 29291 ft | 405 kts | 234° |
| 2026-05-04 13:53 | 38.21700 | 24.82759 | 28866 ft | 406 kts | 235° |
| 2026-05-04 13:53 | 38.20115 | 24.79810 | 28482 ft | 402 kts | 236° |
| 2026-05-04 13:54 | 38.16969 | 24.74001 | 27714 ft | 396 kts | 236° |
| 2026-05-04 13:54 | 38.15398 | 24.71133 | 27323 ft | 393 kts | 236° |
| 2026-05-04 13:54 | 38.12300 | 24.65534 | 26564 ft | 388 kts | 236° |
| 2026-05-04 13:55 | 38.10730 | 24.62716 | 26181 ft | 384 kts | 235° |
| 2026-05-04 13:55 | 38.07670 | 24.57260 | 25418 ft | 379 kts | 235° |
| 2026-05-04 13:55 | 38.06124 | 24.54509 | 25038 ft | 377 kts | 235° |
| 2026-05-04 13:56 | 38.04626 | 24.51841 | 24663 ft | 375 kts | 235° |
| 2026-05-04 13:56 | 38.03123 | 24.49159 | 24275 ft | 373 kts | 235° |
| 2026-05-04 13:56 | 38.00150 | 24.43812 | 23471 ft | 369 kts | 235° |
| 2026-05-04 13:57 | 37.98680 | 24.41153 | 23045 ft | 367 kts | 235° |
| 2026-05-04 13:57 | 37.97219 | 24.38518 | 22611 ft | 364 kts | 235° |
| 2026-05-04 13:58 | 37.92899 | 24.30736 | 21449 ft | 356 kts | 235° |
| 2026-05-04 13:58 | 37.89985 | 24.25771 | 20259 ft | 347 kts | 227° |
| 2026-05-04 13:58 | 37.88309 | 24.23585 | 19598 ft | 344 kts | 225° |
| 2026-05-04 13:59 | 37.86628 | 24.21455 | 18973 ft | 340 kts | 225° |
| 2026-05-04 13:59 | 37.84959 | 24.19353 | 18348 ft | 337 kts | 225° |
| 2026-05-04 13:59 | 37.81656 | 24.15217 | 16974 ft | 331 kts | 225° |
| 2026-05-04 14:00 | 37.80019 | 24.13187 | 16310 ft | 329 kts | 225° |
| 2026-05-04 14:00 | 37.76755 | 24.09188 | 15025 ft | 324 kts | 225° |
| 2026-05-04 14:00 | 37.75129 | 24.07223 | 14414 ft | 323 kts | 225° |
| 2026-05-04 14:01 | 37.73504 | 24.05277 | 13829 ft | 321 kts | 225° |
| 2026-05-04 14:01 | 37.71883 | 24.03360 | 13193 ft | 318 kts | 225° |
| 2026-05-04 14:01 | 37.68663 | 23.99613 | 12011 ft | 311 kts | 225° |
| 2026-05-04 14:02 | 37.67068 | 23.97791 | 11426 ft | 308 kts | 225° |
| 2026-05-04 14:02 | 37.65483 | 23.96003 | 10866 ft | 304 kts | 225° |
| 2026-05-04 14:02 | 37.63904 | 23.94245 | 10357 ft | 300 kts | 225° |
| 2026-05-04 14:02 | 37.62369 | 23.92489 | 9815 ft | 293 kts | 233° |
| 2026-05-04 14:03 | 37.61354 | 23.90349 | 9237 ft | 280 kts | 252° |
| 2026-05-04 14:03 | 37.60672 | 23.88061 | 8623 ft | 277 kts | 255° |
| 2026-05-04 14:03 | 37.60033 | 23.85782 | 8070 ft | 274 kts | 255° |
| 2026-05-04 14:03 | 37.59407 | 23.83537 | 7528 ft | 270 kts | 255° |
| 2026-05-04 14:04 | 37.58175 | 23.79120 | 6475 ft | 264 kts | 255° |
| 2026-05-04 14:04 | 37.57588 | 23.76977 | 5891 ft | 260 kts | 258° |
| 2026-05-04 14:04 | 37.57504 | 23.74769 | 5378 ft | 252 kts | 287° |
| 2026-05-04 14:05 | 37.59767 | 23.71767 | 4684 ft | 247 kts | 345° |
| 2026-05-04 14:05 | 37.61482 | 23.71665 | 4312 ft | 250 kts | 3° |
| 2026-05-04 14:05 | 37.63218 | 23.71895 | 4022 ft | 249 kts | 5° |
| 2026-05-04 14:06 | 37.64945 | 23.72154 | 4004 ft | 252 kts | 5° |
| 2026-05-04 14:06 | 37.66695 | 23.72416 | 4008 ft | 253 kts | 5° |
| 2026-05-04 14:06 | 37.68444 | 23.72680 | 4006 ft | 253 kts | 6° |
| 2026-05-04 14:06 | 37.70126 | 23.73325 | 4003 ft | 256 kts | 28° |
| 2026-05-04 14:07 | 37.71581 | 23.74629 | 4008 ft | 258 kts | 34° |
| 2026-05-04 14:07 | 37.73012 | 23.75999 | 4010 ft | 258 kts | 34° |
| 2026-05-04 14:07 | 37.74446 | 23.77359 | 4011 ft | 258 kts | 34° |
| 2026-05-04 14:07 | 37.75887 | 23.78719 | 4009 ft | 258 kts | 34° |
| 2026-05-04 14:08 | 37.77327 | 23.80080 | 3967 ft | 260 kts | 34° |
| 2026-05-04 14:08 | 37.78773 | 23.81447 | 3701 ft | 258 kts | 34° |
| 2026-05-04 14:08 | 37.80187 | 23.82785 | 3377 ft | 249 kts | 34° |
| 2026-05-04 14:08 | 37.81533 | 23.84061 | 3054 ft | 233 kts | 34° |
| 2026-05-04 14:09 | 37.83926 | 23.86328 | 2484 ft | 201 kts | 34° |
| 2026-05-04 14:09 | 37.85005 | 23.87351 | 2226 ft | 185 kts | 34° |
| 2026-05-04 14:10 | 37.86793 | 23.89046 | 1779 ft | 145 kts | 33° |
| 2026-05-04 14:10 | 37.87585 | 23.89795 | 1579 ft | 141 kts | 33° |
| 2026-05-04 14:10 | 37.88387 | 23.90531 | 1835 ft | 140 kts | 32° |
| 2026-05-04 14:10 | 37.89184 | 23.91262 | 2279 ft | 143 kts | 33° |
| 2026-05-04 14:11 | 37.89985 | 23.92013 | 2806 ft | 144 kts | 33° |
| 2026-05-04 14:11 | 37.91701 | 23.93596 | 3494 ft | 171 kts | 32° |
| 2026-05-04 14:11 | 37.92718 | 23.94562 | 3747 ft | 196 kts | 40° |
| 2026-05-04 14:12 | 37.93410 | 23.96165 | 4089 ft | 222 kts | 77° |
| 2026-05-04 14:12 | 37.93249 | 23.98150 | 4679 ft | 237 kts | 111° |
| 2026-05-04 14:12 | 37.90751 | 24.00685 | 5007 ft | 238 kts | 175° |
| 2026-05-04 14:13 | 37.89120 | 24.00545 | 5018 ft | 236 kts | 193° |
| 2026-05-04 14:13 | 37.87522 | 24.00130 | 5009 ft | 234 kts | 194° |
| 2026-05-04 14:13 | 37.85929 | 23.99669 | 5015 ft | 236 kts | 195° |
| 2026-05-04 14:13 | 37.84329 | 23.99206 | 5010 ft | 236 kts | 195° |
| 2026-05-04 14:14 | 37.82735 | 23.98746 | 5006 ft | 235 kts | 195° |
| 2026-05-04 14:14 | 37.79625 | 23.97613 | 4733 ft | 230 kts | 211° |
| 2026-05-04 14:14 | 37.78248 | 23.96609 | 4513 ft | 224 kts | 215° |
| 2026-05-04 14:15 | 37.75699 | 23.94612 | 4233 ft | 210 kts | 215° |
| 2026-05-04 14:15 | 37.73236 | 23.92657 | 4006 ft | 209 kts | 215° |
| 2026-05-04 14:16 | 37.70884 | 23.90576 | 3806 ft | 202 kts | 238° |
| 2026-05-04 14:16 | 37.70456 | 23.88982 | 3591 ft | 193 kts | 276° |
| 2026-05-04 14:17 | 37.71521 | 23.85991 | 3070 ft | 188 kts | 304° |
| 2026-05-04 14:17 | 37.72245 | 23.84601 | 3012 ft | 190 kts | 305° |
| 2026-05-04 14:17 | 37.74290 | 23.82574 | 3006 ft | 191 kts | 340° |
| 2026-05-04 14:18 | 37.75591 | 23.82384 | 3006 ft | 190 kts | 5° |
| 2026-05-04 14:18 | 37.78226 | 23.82763 | 3010 ft | 190 kts | 5° |
| 2026-05-04 14:19 | 37.80804 | 23.83428 | 3009 ft | 191 kts | 27° |
| 2026-05-04 14:19 | 37.81909 | 23.84404 | 2917 ft | 196 kts | 34° |
| 2026-05-04 14:19 | 37.82995 | 23.85439 | 2690 ft | 196 kts | 34° |
| 2026-05-04 14:19 | 37.84088 | 23.86478 | 2438 ft | 197 kts | 34° |
| 2026-05-04 14:20 | 37.85177 | 23.87511 | 2197 ft | 191 kts | 35° |
| 2026-05-04 14:20 | 37.86204 | 23.88487 | 1941 ft | 176 kts | 34° |
| 2026-05-04 14:20 | 37.86818 | 23.89070 | 1789 ft | 158 kts | 34° |
| 2026-05-04 14:21 | 37.88435 | 23.90603 | 1375 ft | 139 kts | 32° |
| 2026-05-04 14:21 | 37.89205 | 23.91334 | 1178 ft | 137 kts | 33° |
| 2026-05-04 14:21 | 37.89963 | 23.92052 | 972 ft | 136 kts | 36° |
| 2026-05-04 14:21 | 37.90717 | 23.92768 | 790 ft | 135 kts | 35° |
| 2026-05-04 14:22 | 37.91468 | 23.93481 | 604 ft | 134 kts | 38° |
| 2026-05-04 14:22 | 37.92214 | 23.94189 | 417 ft | 134 kts | 38° |
| 2026-05-04 14:22 | 37.92945 | 23.94879 | 300 ft | 120 kts | 38° |
| 2026-05-04 14:22 | 37.93493 | 23.95410 | 286 ft | 75 kts | 36° |
| 2026-05-04 14:23 | 37.93959 | 23.95720 | 286 ft | 16 kts | 8° |
| 2026-05-04 14:23 | 37.94030 | 23.95711 | 293 ft | 0 kts | 326° |
| 2026-05-04 14:24 | 37.94031 | 23.95711 | 293 ft | 0 kts | 326° |
| 2026-05-04 14:24 | 37.94036 | 23.95706 | 297 ft | 1 kts | 321° |
| 2026-05-04 14:25 | 37.94039 | 23.95702 | 298 ft | 6 kts | 321° |
| 2026-05-04 14:25 | 37.94009 | 23.95478 | 300 ft | 17 kts | 218° |
| 2026-05-04 14:25 | 37.93911 | 23.95373 | 302 ft | 19 kts | 229° |
| 2026-05-04 14:26 | 37.93850 | 23.95212 | 301 ft | 21 kts | 239° |
| 2026-05-04 14:26 | 37.93734 | 23.95087 | 301 ft | 23 kts | 217° |
| 2026-05-04 14:26 | 37.93600 | 23.94957 | 303 ft | 25 kts | 218° |
| 2026-05-04 14:26 | 37.93489 | 23.94852 | 301 ft | 19 kts | 216° |
| 2026-05-04 14:27 | 37.93378 | 23.94747 | 303 ft | 16 kts | 217° |
| 2026-05-04 14:27 | 37.93318 | 23.94683 | 303 ft | 4 kts | 254° |
| 2026-05-04 14:27 | 37.93332 | 23.94680 | 302 ft | 2 kts | 28° |
| 2026-05-04 14:27 | 37.93395 | 23.94757 | 301 ft | 20 kts | 40° |
| 2026-05-04 14:28 | 37.93489 | 23.94779 | 301 ft | 10 kts | 309° |
| 2026-05-04 14:28 | 37.93513 | 23.94744 | 302 ft | 0 kts | 308° |